Time;durP1;ratioP1;P1;durP2;ratioP2;P2;SDS_P1;SDS_P2;PMS_P1;PMS_P2;Temp;Humidity;BMP_temperature;BMP_pressure;BME280_temperature;BME280_humidity;BME280_pressure;Samples;Min_cycle;Max_cycle;Signal;HPM_P1;HPM_P2
2022/09/20 00:02:02;;;;;;;2.40;0.80;;;;;;;11.44;85.05;98118.25;4970963;28;20038;-44
2022/09/20 00:04:28;;;;;;;3.15;0.70;;;;;;;11.66;84.85;98148.16;4970880;28;20142;-44
2022/09/20 00:06:53;;;;;;;17.17;0.98;;;;;;;11.67;85.09;98139.41;4952952;28;20070;-43
2022/09/20 00:09:19;;;;;;;0.65;0.60;;;;;;;11.68;84.38;98154.91;4970587;28;20047;-43
2022/09/20 00:11:45;;;;;;;0.95;0.70;;;;;;;11.69;84.77;98171.38;4971302;28;20041;-47
2022/09/20 00:14:12;;;;;;;1.10;0.80;;;;;;;11.68;84.51;98177.50;4969147;28;20050;-43
2022/09/20 00:16:39;;;;;;;1.92;0.90;;;;;;;11.52;84.23;98135.16;4953204;28;20133;-43
2022/09/20 00:19:06;;;;;;;0.65;0.43;;;;;;;11.62;84.05;98170.09;4953157;28;20101;-45
2022/09/20 00:21:33;;;;;;;0.95;0.77;;;;;;;11.72;83.65;98168.59;4952915;28;20118;-44
2022/09/20 00:24:00;;;;;;;0.68;0.60;;;;;;;11.73;83.60;98180.69;4952550;28;20042;-43
2022/09/20 00:26:27;;;;;;;0.47;0.47;;;;;;;11.46;83.16;98146.81;4969998;28;20041;-43
2022/09/20 00:28:53;;;;;;;0.90;0.60;;;;;;;11.73;83.38;98196.31;4969094;28;20511;-46
2022/09/20 00:31:19;;;;;;;1.98;0.75;;;;;;;11.69;83.73;98185.22;4969875;28;20038;-45
2022/09/20 00:36:30;;;;;;;1.63;0.65;;;;;;;11.72;83.41;98203.25;4951653;28;20046;-46
2022/09/20 00:39:00;;;;;;;1.08;0.73;;;;;;;11.72;83.86;98211.06;4970017;28;20299;-42
2022/09/20 00:41:26;;;;;;;2.30;0.50;;;;;;;11.72;83.23;98226.66;4968507;28;20046;-44
2022/09/20 00:43:53;;;;;;;1.88;0.65;;;;;;;11.72;84.00;98231.88;4969262;28;20066;-45
2022/09/20 00:46:32;;;;;;;1.20;0.40;;;;;;;11.72;83.97;98212.84;4952979;28;20042;-43
2022/09/20 00:49:04;;;;;;;0.88;0.70;;;;;;;11.75;84.14;98217.88;4951075;28;20054;-44
2022/09/20 00:51:34;;;;;;;0.63;0.47;;;;;;;11.54;83.91;98195.75;4969632;28;20034;-46
2022/09/20 00:54:00;;;;;;;;;;;;;;;11.72;83.84;98231.06;4970544;28;20078;-45
2022/09/20 00:56:29;;;;;;;1.58;0.75;;;;;;;11.70;84.33;98238.13;4952091;28;19921;-45
2022/09/20 00:59:17;;;;;;;1.00;0.60;;;;;;;11.69;84.53;98232.09;4968972;28;20042;-43
2022/09/20 01:01:46;;;;;;;0.88;0.63;;;;;;;11.71;84.31;98240.66;4969187;28;20074;-44
2022/09/20 01:04:13;;;;;;;1.65;0.85;;;;;;;11.60;84.31;98221.41;4952079;28;20142;-45
2022/09/20 01:06:40;;;;;;;0.52;0.52;;;;;;;11.74;84.29;98244.84;4969951;28;20685;-44
2022/09/20 01:09:06;;;;;;;1.02;0.60;;;;;;;11.76;84.29;98248.19;4968442;28;20042;-44
2022/09/20 01:11:33;;;;;;;0.80;0.70;;;;;;;11.76;84.52;98243.84;4949460;29;20467;-44
2022/09/20 01:13:59;;;;;;;0.77;0.65;;;;;;;11.75;83.85;98239.56;4949259;28;20065;-43
2022/09/20 01:16:26;;;;;;;1.27;0.80;;;;;;;11.74;83.91;98258.69;4970188;28;20486;-46
2022/09/20 01:18:56;;;;;;;0.63;0.52;;;;;;;11.72;84.00;98265.72;4969117;28;20049;-44
2022/09/20 01:21:22;;;;;;;1.00;0.63;;;;;;;11.64;84.08;98247.16;4969070;28;20045;-48
2022/09/20 01:23:52;;;;;;;1.67;0.90;;;;;;;11.74;84.14;98257.84;4951568;28;20417;-45
2022/09/20 01:26:29;;;;;;;0.50;0.50;;;;;;;11.73;83.69;98292.63;4969573;28;20042;-45
2022/09/20 01:29:04;;;;;;;0.60;0.60;;;;;;;11.73;84.01;98264.84;4969540;28;20433;-44
2022/09/20 01:31:35;;;;;;;1.65;0.70;;;;;;;11.69;84.41;98271.13;4967023;28;20050;-45
2022/09/20 01:34:08;;;;;;;1.55;0.85;;;;;;;11.68;84.10;98284.22;4968205;28;20046;-43
2022/09/20 01:36:46;;;;;;;3.58;0.63;;;;;;;11.63;84.25;98275.88;4968012;28;20046;-46
2022/09/20 01:39:15;;;;;;;0.90;0.60;;;;;;;11.54;84.75;98274.66;4943410;28;20114;-45
2022/09/20 01:41:53;;;;;;;0.82;0.38;;;;;;;11.49;85.25;98294.94;4951270;28;20407;-43
2022/09/20 01:44:22;;;;;;;5.13;0.85;;;;;;;11.44;85.55;98292.63;4969574;28;20145;-47
2022/09/20 01:46:54;;;;;;;1.02;0.60;;;;;;;11.39;85.80;98289.44;4970370;28;20047;-47
2022/09/20 01:49:44;;;;;;;2.83;0.80;;;;;;;11.33;86.60;98300.22;4967881;28;20077;-48
2022/09/20 01:52:34;;;;;;;1.15;0.73;;;;;;;11.30;87.23;98315.19;4969271;28;20249;-47
2022/09/20 01:55:30;;;;;;;4.35;0.70;;;;;;;11.30;87.19;98330.78;4947332;28;20314;-46
2022/09/20 01:58:34;;;;;;;1.40;0.80;;;;;;;11.36;87.24;98339.06;4960172;28;20046;-43
2022/09/20 02:01:21;;;;;;;2.13;0.80;;;;;;;11.41;86.69;98324.00;4948403;28;20043;-44
2022/09/20 02:04:09;;;;;;;1.92;0.73;;;;;;;11.44;86.35;98326.44;4969155;28;20042;-43
2022/09/20 02:06:56;;;;;;;2.17;0.95;;;;;;;11.46;86.95;98319.34;4951757;28;20526;-43
2022/09/20 02:09:43;;;;;;;2.92;0.80;;;;;;;11.48;86.86;98314.91;4969483;28;20054;-46
2022/09/20 02:12:31;;;;;;;0.65;0.65;;;;;;;11.52;86.73;98338.13;4950272;28;20489;-44
2022/09/20 02:15:14;;;;;;;3.38;1.05;;;;;;;11.46;86.26;98316.75;4967632;28;20042;-48
2022/09/20 02:18:15;;;;;;;1.15;0.80;;;;;;;11.55;86.48;98338.81;4973131;28;20042;-45
2022/09/20 02:20:46;;;;;;;0.88;0.80;;;;;;;11.55;86.69;98341.41;4972780;28;20042;-45
2022/09/20 02:23:26;;;;;;;3.30;0.90;;;;;;;11.39;86.17;98325.03;4971780;28;20066;-43
2022/09/20 02:26:22;;;;;;;1.58;0.80;;;;;;;11.58;86.16;98353.41;4962940;28;20069;-43
2022/09/20 02:29:16;;;;;;;1.45;0.80;;;;;;;11.43;85.82;98324.75;4947185;28;20074;-46
2022/09/20 02:32:07;;;;;;;1.27;0.60;;;;;;;11.64;86.37;98360.84;4971174;28;20038;-44
2022/09/20 02:34:45;;;;;;;2.25;0.65;;;;;;;11.62;86.04;98388.75;4971682;28;20070;-45
2022/09/20 02:37:34;;;;;;;2.17;0.90;;;;;;;11.64;85.67;98372.09;4972217;28;20042;-44
2022/09/20 02:40:48;;;;;;;1.00;0.70;;;;;;;11.65;85.43;98396.38;4956739;28;20537;-44
2022/09/20 02:43:14;;;;;;;2.85;1.08;;;;;;;11.66;85.35;98378.06;4893521;29;20572;-44
2022/09/20 02:45:51;;;;;;;0.85;0.57;;;;;;;11.66;85.63;98385.03;4894023;29;20049;-44
2022/09/20 02:48:25;;;;;;;1.45;0.77;;;;;;;11.69;84.73;98396.09;4925738;28;20086;-45
2022/09/20 02:51:19;;;;;;;1.27;0.80;;;;;;;11.72;84.46;98392.47;4950395;29;20073;-50
2022/09/20 02:54:02;;;;;;;1.65;0.57;;;;;;;11.75;83.54;98403.56;4951600;29;20098;-45
2022/09/20 02:56:44;;;;;;;1.67;0.80;;;;;;;11.78;83.65;98411.19;4963043;28;20138;-44
2022/09/20 02:59:24;;;;;;;1.30;0.73;;;;;;;11.62;83.70;98384.34;4963911;28;20050;-47
2022/09/20 03:01:59;;;;;;;1.52;0.88;;;;;;;11.81;83.56;98412.78;4952749;28;20423;-44
2022/09/20 03:04:43;;;;;;;0.70;0.50;;;;;;;11.79;83.78;98425.88;4952705;28;20054;-49
2022/09/20 03:07:57;;;;;;;4.32;0.60;;;;;;;11.81;83.59;98431.03;4952107;28;20507;-44
2022/09/20 03:11:00;;;;;;;0.98;0.70;;;;;;;11.83;83.61;98444.75;4943552;29;20051;-44
2022/09/20 03:13:52;;;;;;;1.45;0.70;;;;;;;11.81;83.14;98433.63;4952343;29;20426;-45
2022/09/20 03:16:35;;;;;;;1.15;0.65;;;;;;;11.77;82.90;98443.38;4967651;28;20133;-45
2022/09/20 03:19:12;;;;;;;0.70;0.50;;;;;;;11.80;82.82;98439.75;4952226;28;20108;-43
2022/09/20 03:21:49;;;;;;;1.13;0.63;;;;;;;11.79;83.28;98456.28;4966075;28;20147;-45
2022/09/20 03:24:28;;;;;;;0.90;0.60;;;;;;;11.78;82.79;98458.06;4951220;29;20430;-46
2022/09/20 03:27:12;;;;;;;1.65;0.98;;;;;;;11.78;82.63;98465.03;4966418;28;20050;-44
2022/09/20 03:30:02;;;;;;;1.08;0.77;;;;;;;11.78;82.28;98463.25;4952333;28;20039;-49
2022/09/20 03:33:09;;;;;;;4.47;0.98;;;;;;;11.79;82.38;98469.31;4951652;28;20043;-45
2022/09/20 03:36:12;;;;;;;1.08;0.60;;;;;;;11.80;82.10;98476.22;4951648;28;20043;-44
2022/09/20 03:38:54;;;;;;;0.80;0.60;;;;;;;11.79;82.21;98485.78;4951231;29;20050;-45
2022/09/20 03:41:38;;;;;;;2.28;1.00;;;;;;;11.81;82.56;98494.34;4942896;29;20077;-45
2022/09/20 03:44:15;;;;;;;2.20;0.77;;;;;;;11.81;81.45;98488.31;4964817;28;20055;-45
2022/09/20 03:46:46;;;;;;;1.23;0.80;;;;;;;11.82;81.36;98513.41;4959301;28;20073;-44
2022/09/20 03:49:40;;;;;;;1.67;0.93;;;;;;;11.83;81.46;98502.06;4953950;28;20042;-44
2022/09/20 03:52:18;;;;;;;0.77;0.55;;;;;;;11.82;81.52;98511.66;4967418;28;20046;-43
2022/09/20 03:54:47;;;;;;;1.17;0.70;;;;;;;11.80;81.24;98504.84;4954042;28;20050;-46
2022/09/20 03:57:42;;;;;;;2.05;0.80;;;;;;;11.78;82.01;98540.53;4953016;28;20045;-44
2022/09/20 04:00:15;;;;;;;1.85;0.80;;;;;;;11.75;81.80;98512.94;4966651;28;20042;-45
2022/09/20 04:03:07;;;;;;;0.77;0.75;;;;;;;11.72;82.25;98518.25;4970988;28;20125;-45
2022/09/20 04:05:56;;;;;;;3.75;0.77;;;;;;;11.69;82.19;98541.03;4955871;28;20034;-43
2022/09/20 04:08:37;;;;;;;0.70;0.60;;;;;;;11.64;83.00;98543.91;4952515;28;20053;-46
2022/09/20 04:11:20;;;;;;;2.45;1.13;;;;;;;11.53;83.15;98533.25;4970324;28;20708;-46
2022/09/20 04:13:54;;;;;;;2.67;1.10;;;;;;;11.41;83.11;98507.91;4953858;28;20481;-44
2022/09/20 04:16:48;;;;;;;1.30;0.88;;;;;;;11.79;83.43;98561.28;4969342;28;20510;-45
2022/09/20 04:19:23;;;;;;;0.90;0.80;;;;;;;11.62;82.85;98537.94;4970125;28;20054;-44
2022/09/20 04:21:59;;;;;;;2.38;1.13;;;;;;;11.83;83.16;98564.56;4953715;28;20451;-47
2022/09/20 04:24:27;;;;;;;2.63;0.85;;;;;;;11.85;83.42;98555.75;4969800;28;20521;-42
2022/09/20 04:27:00;;;;;;;2.83;1.13;;;;;;;11.87;82.97;98577.34;4968762;28;20126;-46
2022/09/20 04:29:26;;;;;;;2.50;1.10;;;;;;;11.91;83.29;98585.81;4945731;28;20042;-44
2022/09/20 04:32:30;;;;;;;1.80;0.73;;;;;;;11.94;83.13;98582.16;4969877;28;20524;-48
2022/09/20 04:38:04;;;;;;;3.03;1.25;;;;;;;11.95;83.00;98589.06;4952685;28;20043;-44
2022/09/20 04:40:42;;;;;;;1.17;1.00;;;;;;;11.95;82.98;98586.47;4953542;28;20577;-45
2022/09/20 04:43:31;;;;;;;2.75;1.30;;;;;;;11.97;82.80;98595.03;4967944;28;20043;-45
2022/09/20 04:46:18;;;;;;;2.15;1.20;;;;;;;11.98;83.15;98600.16;4969558;28;20049;-43
2022/09/20 04:49:12;;;;;;;2.03;1.20;;;;;;;12.03;83.08;98603.34;4967032;28;20043;-48
2022/09/20 04:51:50;;;;;;;2.05;1.27;;;;;;;12.09;82.32;98612.56;4952631;28;20062;-48
2022/09/20 04:54:37;;;;;;;4.60;1.40;;;;;;;12.13;82.13;98612.31;4969638;28;20098;-43
2022/09/20 04:57:06;;;;;;;2.13;1.20;;;;;;;12.22;82.04;98618.75;4951671;28;20606;-46
2022/09/20 04:59:37;;;;;;;3.30;1.20;;;;;;;12.18;81.49;98625.91;4969707;28;20071;-43
2022/09/20 05:02:41;;;;;;;2.92;1.38;;;;;;;12.12;81.46;98626.25;4968528;28;20035;-43
2022/09/20 05:05:40;;;;;;;4.50;1.50;;;;;;;12.12;81.90;98648.84;4966636;28;20142;-43
2022/09/20 05:08:27;;;;;;;0.90;0.43;;;;;;;12.15;82.01;98646.91;4952824;28;20097;-44
2022/09/20 05:11:34;;;;;;;2.67;1.60;;;;;;;12.17;81.94;98649.44;4968801;28;20038;-49
2022/09/20 05:14:11;;;;;;;2.20;1.13;;;;;;;12.20;81.51;98638.81;4970322;28;20058;-47
2022/09/20 05:16:54;;;;;;;2.47;0.90;;;;;;;12.28;81.41;98653.09;4968414;28;20038;-45
2022/09/20 05:19:44;;;;;;;3.45;1.33;;;;;;;12.35;81.44;98651.00;4966870;28;20474;-43
2022/09/20 05:22:16;;;;;;;1.88;1.10;;;;;;;12.35;80.56;98651.00;4967528;28;20034;-46
2022/09/20 05:24:45;;;;;;;5.05;1.30;;;;;;;12.45;80.75;98669.53;4950651;28;21054;-47
2022/09/20 05:27:29;;;;;;;6.15;1.35;;;;;;;12.51;79.89;98666.59;4965645;28;20046;-46
2022/09/20 05:30:02;;;;;;;2.78;1.05;;;;;;;12.55;79.46;98668.91;4953921;28;20581;-47
2022/09/20 05:32:39;;;;;;;6.15;1.30;;;;;;;12.49;79.12;98676.25;4950392;28;20043;-43
2022/09/20 05:35:16;;;;;;;1.48;0.98;;;;;;;12.50;79.63;98670.13;4952146;28;20779;-43
2022/09/20 05:38:23;;;;;;;3.20;1.50;;;;;;;12.67;79.09;98675.16;4951930;28;20506;-45
2022/09/20 05:41:22;;;;;;;3.28;1.17;;;;;;;12.81;78.02;98677.81;4947725;28;20154;-46
2022/09/20 05:44:19;;;;;;;4.65;1.02;;;;;;;12.95;77.66;98690.88;4929011;28;20061;-46
2022/09/20 05:47:23;;;;;;;1.73;1.00;;;;;;;13.35;75.69;98694.53;4967769;28;20047;-45
2022/09/20 05:49:59;;;;;;;1.88;1.08;;;;;;;13.98;73.56;98679.22;4943042;28;20043;-46
2022/09/20 05:53:17;;;;;;;2.22;0.80;;;;;;;13.96;71.94;98693.31;4965049;28;20560;-44
2022/09/20 05:56:01;;;;;;;1.77;1.17;;;;;;;14.01;71.36;98693.88;4912306;29;20051;-44
2022/09/20 05:58:37;;;;;;;1.77;1.33;;;;;;;14.21;71.20;98696.03;4897763;29;20468;-41
2022/09/20 06:01:25;;;;;;;2.97;1.13;;;;;;;14.90;68.12;98674.00;4898189;29;20059;-42
2022/09/20 06:03:56;;;;;;;7.00;1.10;;;;;;;15.14;67.05;98674.09;4918565;29;20436;-44
2022/09/20 06:06:38;;;;;;;3.90;1.40;;;;;;;14.71;67.70;98704.97;4904253;29;20549;-43
2022/09/20 06:09:28;;;;;;;2.65;1.25;;;;;;;14.89;67.99;98702.91;4919892;29;20085;-45
2022/09/20 06:12:00;;;;;;;4.90;1.20;;;;;;;14.55;67.88;98705.13;4909410;29;20051;-45
2022/09/20 06:14:45;;;;;;;3.78;1.30;;;;;;;13.86;68.67;98684.41;4918973;29;20152;-45
2022/09/20 06:17:17;;;;;;;2.75;1.10;;;;;;;14.97;67.34;98698.00;4916880;29;20126;-45
2022/09/20 06:19:51;;;;;;;5.75;1.30;;;;;;;15.54;63.88;98724.59;4918927;29;20051;-44
2022/09/20 06:22:46;;;;;;;9.80;1.20;;;;;;;16.03;62.82;98714.94;4905122;29;20048;-46
2022/09/20 06:25:19;;;;;;;2.50;1.30;;;;;;;16.58;61.12;98746.81;4914871;29;20799;-44
2022/09/20 06:27:52;;;;;;;1.58;0.80;;;;;;;15.87;60.89;98729.22;4953002;28;20043;-42
2022/09/20 06:30:33;;;;;;;7.65;1.30;;;;;;;15.50;62.52;98744.88;4953398;28;20484;-46
2022/09/20 06:33:20;;;;;;;3.85;1.27;;;;;;;15.32;63.22;98745.31;4954937;28;20189;-42
2022/09/20 06:35:57;;;;;;;1.45;0.90;;;;;;;14.84;63.13;98735.47;4954844;28;20740;-43
2022/09/20 06:41:59;;;;;;;3.90;1.27;;;;;;;14.27;65.05;98741.84;4931018;29;20119;-47
2022/09/20 06:44:25;;;;;;;1.50;1.05;;;;;;;14.23;65.64;98743.84;4928927;29;20211;-45
2022/09/20 06:46:54;;;;;;;2.25;1.30;;;;;;;14.41;65.26;98752.28;4946653;28;20050;-45
2022/09/20 06:49:21;;;;;;;3.25;1.42;;;;;;;14.72;64.47;98757.19;4949245;28;20055;-51
2022/09/20 06:51:49;;;;;;;4.50;1.00;;;;;;;14.57;64.18;98742.50;4951483;28;20383;-48
2022/09/20 06:54:19;;;;;;;1.53;0.97;;;;;;;14.87;64.13;98780.66;4952970;28;20051;-46
2022/09/20 06:56:46;;;;;;;2.25;0.93;;;;;;;14.75;63.25;98764.00;4950476;29;20896;-45
2022/09/20 06:59:13;;;;;;;1.55;0.88;;;;;;;14.71;63.24;98778.22;4951908;28;20047;-45
2022/09/20 07:01:39;;;;;;;1.63;0.90;;;;;;;14.28;64.02;98772.31;4950378;28;20050;-45
2022/09/20 07:04:08;;;;;;;3.10;0.93;;;;;;;14.06;65.12;98780.66;4952102;28;20051;-47
2022/09/20 07:06:34;;;;;;;1.23;0.93;;;;;;;13.99;65.66;98774.13;4936019;29;20039;-45
2022/09/20 07:09:00;;;;;;;1.52;0.93;;;;;;;13.89;66.14;98781.72;4951088;28;20062;-46
2022/09/20 07:11:26;;;;;;;3.05;0.60;;;;;;;13.62;66.47;98746.00;4951189;28;20071;-48
2022/09/20 07:13:54;;;;;;;2.83;0.95;;;;;;;13.70;66.61;98789.00;4953036;29;20138;-50
2022/09/20 07:16:20;;;;;;;2.53;1.02;;;;;;;13.70;67.22;98786.41;4952021;29;20047;-46
2022/09/20 07:18:47;;;;;;;2.83;1.23;;;;;;;13.71;67.06;98798.50;4952666;29;20054;-51
2022/09/20 07:21:15;;;;;;;4.00;1.17;;;;;;;13.69;67.15;98800.38;4951647;29;20047;-50
2022/09/20 07:23:41;;;;;;;2.20;1.13;;;;;;;13.72;67.20;98804.56;4948435;29;20039;-50
2022/09/20 07:26:16;;;;;;;3.42;1.20;;;;;;;13.77;66.97;98797.28;4951039;29;20046;-47
2022/09/20 07:28:42;;;;;;;4.07;1.02;;;;;;;13.84;66.78;98802.06;4950215;29;20038;-48
2022/09/20 07:31:08;;;;;;;3.58;1.50;;;;;;;14.04;66.75;98798.19;4951261;29;20149;-50
2022/09/20 07:33:33;;;;;;;2.60;1.08;;;;;;;14.12;66.19;98798.56;4950737;29;20166;-46
2022/09/20 07:36:00;;;;;;;5.68;1.45;;;;;;;14.20;66.12;98813.75;4951351;29;20047;-47
2022/09/20 07:38:27;;;;;;;6.05;1.55;;;;;;;14.22;66.31;98810.13;4952558;28;20523;-46
2022/09/20 07:41:02;;;;;;;7.03;1.40;;;;;;;14.27;66.41;98818.53;4951332;29;20070;-50
2022/09/20 07:43:29;;;;;;;2.83;1.20;;;;;;;14.24;66.23;98815.22;4960169;28;20042;-43
2022/09/20 07:45:55;;;;;;;4.07;1.40;;;;;;;14.14;66.44;98819.38;4971564;28;20065;-47
2022/09/20 07:48:23;;;;;;;1.85;0.85;;;;;;;14.06;66.63;98817.25;4971172;28;20077;-44
2022/09/20 07:50:54;;;;;;;5.13;1.45;;;;;;;14.00;66.91;98828.06;4938491;28;20116;-45
2022/09/20 07:53:21;;;;;;;3.08;1.23;;;;;;;13.93;67.21;98822.38;4951790;28;20031;-48
2022/09/20 07:56:10;;;;;;;5.15;1.90;;;;;;;13.96;67.28;98826.59;4970557;28;20137;-48
2022/09/20 07:58:38;;;;;;;4.60;1.65;;;;;;;13.74;67.32;98806.16;4963433;28;20102;-50
2022/09/20 08:01:11;;;;;;;3.97;1.50;;;;;;;13.94;67.82;98828.44;4970441;28;20783;-46
2022/09/20 08:03:39;;;;;;;3.25;1.50;;;;;;;13.99;67.68;98849.91;4937944;28;20513;-49
2022/09/20 08:06:10;;;;;;;2.33;1.25;;;;;;;13.99;67.46;98836.84;4969854;28;20120;-47
2022/09/20 08:08:38;;;;;;;2.80;1.20;;;;;;;13.99;67.10;98836.84;4953913;28;20043;-46
2022/09/20 08:11:07;;;;;;;2.88;1.10;;;;;;;13.98;67.36;98843.00;4971210;28;20046;-45
2022/09/20 08:16:29;;;;;;;3.22;1.00;;;;;;;13.90;67.39;98840.03;4955994;28;19980;-47
2022/09/20 08:18:57;;;;;;;4.25;1.00;;;;;;;13.88;67.66;98844.50;4954201;28;20042;-46
2022/09/20 08:21:27;;;;;;;4.90;1.50;;;;;;;14.01;67.57;98840.22;4953816;28;20049;-46
2022/09/20 08:23:53;;;;;;;4.63;1.20;;;;;;;14.03;67.15;98858.44;4953064;28;20043;-45
2022/09/20 08:26:22;;;;;;;5.72;1.85;;;;;;;13.97;67.35;98857.84;4970521;28;20465;-44
2022/09/20 08:28:51;;;;;;;1.20;0.73;;;;;;;14.03;67.35;98855.81;4971006;28;20502;-44
2022/09/20 08:31:18;;;;;;;2.28;1.02;;;;;;;14.29;67.00;98870.69;4969375;28;20146;-50
2022/09/20 08:33:45;;;;;;;6.97;1.20;;;;;;;15.43;63.36;98858.91;4968345;28;20054;-45
2022/09/20 08:36:13;;;;;;;3.72;1.20;;;;;;;15.74;61.85;98870.81;4970272;28;20037;-47
2022/09/20 08:38:39;;;;;;;2.92;1.23;;;;;;;16.53;59.84;98873.94;4969944;28;20101;-43
2022/09/20 08:41:10;;;;;;;4.05;1.35;;;;;;;17.99;56.14;98875.34;4953271;28;20046;-45
2022/09/20 08:43:40;;;;;;;2.22;1.30;;;;;;;19.58;51.83;98869.44;4970656;28;20193;-45
2022/09/20 08:46:11;;;;;;;1.88;0.80;;;;;;;20.72;47.47;98860.38;4953110;28;20125;-46
2022/09/20 08:48:37;;;;;;;3.67;1.02;;;;;;;21.24;46.18;98877.69;4970409;28;20073;-44
2022/09/20 08:51:05;;;;;;;2.63;1.23;;;;;;;20.48;46.95;98866.00;4968004;28;20092;-46
2022/09/20 08:53:32;;;;;;;1.77;1.10;;;;;;;19.86;48.28;98861.72;4970375;28;20043;-50
2022/09/20 08:55:58;;;;;;;2.58;1.35;;;;;;;18.75;50.16;98888.56;4952998;28;20054;-49
2022/09/20 08:58:27;;;;;;;4.13;1.00;;;;;;;17.91;51.72;98872.44;4953377;28;20474;-53
2022/09/20 09:00:55;;;;;;;2.40;1.00;;;;;;;17.40;52.56;98848.31;4970521;28;20089;-47
2022/09/20 09:03:21;;;;;;;4.57;1.60;;;;;;;17.00;52.86;98869.69;4953211;28;20066;-45
2022/09/20 09:05:54;;;;;;;4.55;1.20;;;;;;;16.68;53.48;98876.44;4952938;28;20038;-49
2022/09/20 09:08:27;;;;;;;4.93;1.02;;;;;;;16.40;53.88;98877.53;4952994;28;20062;-45
2022/09/20 09:10:57;;;;;;;1.65;0.90;;;;;;;16.04;54.94;98854.72;4970399;28;20125;-47
2022/09/20 09:13:52;;;;;;;3.55;0.90;;;;;;;16.08;55.88;98869.28;4952555;28;20054;-47
2022/09/20 09:16:20;;;;;;;6.63;1.35;;;;;;;16.30;55.31;98879.13;4959703;28;20429;-47
2022/09/20 09:18:50;;;;;;;8.13;1.63;;;;;;;17.66;53.38;98879.59;4967754;28;20047;-48
2022/09/20 09:21:22;;;;;;;3.70;1.02;;;;;;;18.68;50.63;98879.50;4949432;28;20053;-48
2022/09/20 09:24:00;;;;;;;2.33;1.00;;;;;;;17.79;51.70;98877.69;4968370;28;20570;-49
2022/09/20 09:26:27;;;;;;;3.20;0.90;;;;;;;17.27;52.72;98854.47;4969266;28;20043;-49
2022/09/20 09:29:14;;;;;;;2.15;1.08;;;;;;;16.90;53.43;98885.25;4968569;28;20065;-45
2022/09/20 09:31:42;;;;;;;1.48;0.90;;;;;;;17.69;52.61;98897.75;4958512;28;20055;-47
2022/09/20 09:34:24;;;;;;;1.83;0.70;;;;;;;17.30;52.41;98898.09;4970056;28;20047;-49
2022/09/20 09:36:53;;;;;;;0.60;0.60;;;;;;;17.32;52.49;98891.75;4967651;28;20053;-48
2022/09/20 09:39:22;;;;;;;2.17;0.93;;;;;;;16.92;53.43;98911.41;4950830;28;20640;-47
2022/09/20 09:41:48;;;;;;;3.63;1.05;;;;;;;16.51;53.99;98903.84;4968084;28;20043;-48
2022/09/20 09:44:28;;;;;;;3.03;0.85;;;;;;;16.46;54.59;98919.91;4950411;28;20064;-51
2022/09/20 09:46:57;;;;;;;1.05;0.88;;;;;;;16.40;54.42;98909.00;4967952;28;20077;-50
2022/09/20 09:49:32;;;;;;;1.30;1.00;;;;;;;16.38;55.14;98918.78;4951937;28;20038;-48
2022/09/20 09:52:01;;;;;;;2.08;0.93;;;;;;;16.48;54.83;98919.81;4961565;28;20041;-51
2022/09/20 09:54:29;;;;;;;2.47;0.75;;;;;;;16.15;55.23;98899.41;4953062;28;20415;-51
2022/09/20 09:57:07;;;;;;;1.15;0.90;;;;;;;16.27;55.61;98923.94;4969851;28;20046;-48
2022/09/20 09:59:45;;;;;;;1.35;0.90;;;;;;;16.34;55.81;98923.41;4970189;28;20039;-49
2022/09/20 10:02:29;;;;;;;1.60;1.00;;;;;;;16.19;56.12;98921.84;4969754;28;20476;-47
2022/09/20 10:05:02;;;;;;;2.22;0.90;;;;;;;16.06;56.59;98919.25;4970054;28;20039;-48
2022/09/20 10:07:35;;;;;;;2.05;1.27;;;;;;;15.96;56.89;98927.84;4952408;28;20046;-48
2022/09/20 10:10:33;;;;;;;2.47;1.40;;;;;;;15.87;57.62;98924.06;4952389;28;20042;-48
2022/09/20 10:13:30;;;;;;;2.08;1.63;;;;;;;15.81;57.89;98926.25;4951863;28;20125;-52
2022/09/20 10:16:28;;;;;;;1.55;1.33;;;;;;;15.92;58.00;98937.69;4969817;28;20536;-49
2022/09/20 10:19:13;;;;;;;3.72;1.38;;;;;;;15.96;57.79;98936.53;4963986;28;20043;-51
2022/09/20 10:22:16;;;;;;;2.22;1.20;;;;;;;15.90;58.35;98941.38;4969386;28;20470;-49
2022/09/20 10:25:25;;;;;;;2.15;1.10;;;;;;;15.87;58.90;98941.56;4947529;28;20121;-48
2022/09/20 10:28:06;;;;;;;1.35;0.90;;;;;;;15.80;58.93;98937.69;4952482;28;20035;-49
2022/09/20 10:30:47;;;;;;;2.22;1.00;;;;;;;15.75;59.05;98943.25;4953120;28;20043;-47
2022/09/20 10:33:33;;;;;;;4.05;1.38;;;;;;;15.85;59.52;98946.94;4934475;29;20599;-48
2022/09/20 10:36:04;;;;;;;5.72;1.40;;;;;;;15.90;59.17;98947.44;4960333;28;20108;-48
2022/09/20 10:38:40;;;;;;;4.03;2.28;;;;;;;15.63;59.40;98934.41;4971449;28;20038;-47
2022/09/20 10:44:50;;;;;;;5.93;1.23;;;;;;;15.50;59.96;98967.56;4933286;28;20062;-51
2022/09/20 10:47:19;;;;;;;4.80;1.30;;;;;;;15.34;59.85;98956.41;4953117;28;20047;-50
2022/09/20 10:49:48;;;;;;;1.83;1.00;;;;;;;15.37;60.02;98960.63;4953149;29;20098;-51
2022/09/20 10:52:38;;;;;;;5.60;1.30;;;;;;;15.32;60.20;98960.09;4953167;28;20062;-52
2022/09/20 10:55:35;;;;;;;3.15;1.10;;;;;;;15.26;60.25;98963.94;4952034;29;20039;-53
2022/09/20 10:58:33;;;;;;;4.10;1.42;;;;;;;15.17;60.47;98960.16;4951536;28;20055;-51
2022/09/20 11:01:22;;;;;;;4.43;1.50;;;;;;;15.17;60.87;98981.09;4953023;29;20035;-50
2022/09/20 11:04:00;;;;;;;3.08;1.42;;;;;;;15.08;60.74;98973.81;4968145;28;20573;-48
2022/09/20 11:06:45;;;;;;;9.37;1.90;;;;;;;15.02;61.05;98981.25;4952919;28;20122;-48
2022/09/20 11:09:21;;;;;;;8.10;1.88;;;;;;;14.97;61.60;98986.72;4951649;29;20082;-50
2022/09/20 11:12:11;;;;;;;3.03;1.30;;;;;;;14.90;62.23;98995.94;4952734;28;20435;-46
2022/09/20 11:14:48;;;;;;;1.67;0.95;;;;;;;14.79;62.56;98990.53;4952026;29;20039;-52
2022/09/20 11:17:25;;;;;;;2.75;1.20;;;;;;;14.77;62.25;98995.00;4951137;29;20071;-51
2022/09/20 11:20:04;;;;;;;2.45;1.20;;;;;;;14.71;62.45;99009.31;4951191;29;20047;-47
2022/09/20 11:22:38;;;;;;;3.75;1.30;;;;;;;14.70;62.78;99012.03;4952683;29;20578;-46
2022/09/20 11:25:23;;;;;;;2.88;1.50;;;;;;;14.37;62.83;98966.09;4952941;29;20043;-52
2022/09/20 11:27:53;;;;;;;9.30;1.90;;;;;;;14.68;63.05;99019.97;4951102;29;20039;-49
2022/09/20 11:30:21;;;;;;;6.15;1.70;;;;;;;14.49;63.25;98992.44;4952750;28;20067;-47
2022/09/20 11:32:56;;;;;;;6.25;1.50;;;;;;;14.66;63.74;99028.84;4952388;28;20130;-48
2022/09/20 11:35:29;;;;;;;9.02;1.70;;;;;;;14.66;63.69;99039.28;4951750;29;20066;-45
2022/09/20 11:38:02;;;;;;;6.78;1.67;;;;;;;14.74;63.76;99039.69;4951967;29;20050;-51
2022/09/20 11:40:42;;;;;;;2.30;1.38;;;;;;;14.77;63.84;99044.72;4951051;29;20047;-49
2022/09/20 11:43:08;;;;;;;6.57;1.52;;;;;;;14.76;63.57;99038.63;4950531;28;20081;-48
2022/09/20 11:45:37;;;;;;;2.75;1.38;;;;;;;14.77;63.44;99042.94;4952264;28;20051;-52
2022/09/20 11:48:14;;;;;;;4.25;1.45;;;;;;;14.74;63.36;99047.53;4951929;28;20047;-49
2022/09/20 11:51:01;;;;;;;4.00;1.52;;;;;;;14.69;64.02;99054.81;4950896;29;20444;-51
2022/09/20 11:53:54;;;;;;;1.08;0.75;;;;;;;14.55;64.33;99055.66;4952646;28;20046;-55
2022/09/20 11:56:21;;;;;;;6.82;1.70;;;;;;;14.33;66.33;99069.16;4949514;28;20223;-48
2022/09/20 11:58:54;;;;;;;4.22;1.20;;;;;;;14.19;67.15;99058.66;4949777;29;20150;-50
2022/09/20 12:01:31;;;;;;;1.83;0.88;;;;;;;14.16;67.49;99058.84;4949721;29;20114;-51
2022/09/20 12:04:05;;;;;;;9.23;1.52;;;;;;;14.22;67.80;99068.94;4950041;29;20043;-48
2022/09/20 12:06:33;;;;;;;4.82;1.80;;;;;;;14.23;68.18;99081.09;4933443;29;20047;-49
2022/09/20 12:09:03;;;;;;;3.63;1.70;;;;;;;13.38;75.83;99085.13;4949468;28;20109;-50
2022/09/20 12:11:32;;;;;;;;;;;;;;;12.69;86.42;99081.00;4949817;29;20149;-51
2022/09/20 12:14:05;;;;;;;6.10;2.30;;;;;;;12.59;93.39;99084.16;4933877;29;20057;-53
2022/09/20 12:16:44;;;;;;;6.18;2.35;;;;;;;12.64;96.22;99088.22;4948919;29;20063;-50
2022/09/20 12:19:20;;;;;;;7.93;2.30;;;;;;;12.53;97.83;99079.25;4949146;29;20052;-52
2022/09/20 12:22:09;;;;;;;12.65;2.85;;;;;;;12.30;99.89;99077.81;4949089;29;20536;-54
2022/09/20 12:24:40;;;;;;;12.55;3.17;;;;;;;12.25;100.00;99083.28;4943778;29;20063;-53
2022/09/20 12:27:28;;;;;;;5.32;2.75;;;;;;;12.40;100.00;99086.03;4949158;29;20491;-51
2022/09/20 12:30:26;;;;;;;4.43;2.38;;;;;;;12.60;100.00;99085.84;4932926;29;20043;-51
2022/09/20 12:32:56;;;;;;;7.13;2.25;;;;;;;12.68;100.00;99096.72;4952453;28;20043;-48
2022/09/20 12:35:44;;;;;;;;;;;;;;;12.60;100.00;99096.28;4951841;28;20154;-52
2022/09/20 12:38:20;;;;;;;4.55;2.17;;;;;;;12.43;100.00;99094.53;4951943;28;19918;-50